createdAt,value
2022-10-20T05:00:15.149Z,17.60
2022-10-20T05:05:18.847Z,17.20
2022-10-20T05:10:22.391Z,17.00
2022-10-20T05:15:27.325Z,16.80
2022-10-20T05:20:36.783Z,16.80
2022-10-20T05:25:44.929Z,16.80
2022-10-20T05:30:49.816Z,16.80
2022-10-20T05:35:53.447Z,16.80
2022-10-20T05:40:57.004Z,16.70
2022-10-20T05:46:01.893Z,16.50
2022-10-20T05:51:13.558Z,16.30
2022-10-20T05:56:20.316Z,16.30
2022-10-20T06:01:26.458Z,16.50
2022-10-20T06:06:31.607Z,16.50
2022-10-20T06:11:39.204Z,16.60
2022-10-20T06:16:44.713Z,16.60
2022-10-20T06:21:49.466Z,16.40
2022-10-20T06:26:53.401Z,16.30
2022-10-20T06:31:58.275Z,16.20
2022-10-20T06:37:02.041Z,16.20
2022-10-20T06:42:09.641Z,16.10
2022-10-20T06:47:22.628Z,16.00
2022-10-20T06:52:26.150Z,15.90
2022-10-20T06:57:32.275Z,15.80
2022-10-20T07:02:39.862Z,15.60
2022-10-20T07:07:43.438Z,15.60
2022-10-20T07:12:46.954Z,15.50
2022-10-20T07:17:51.833Z,15.40
2022-10-20T07:22:55.628Z,15.50
2022-10-20T07:27:59.131Z,15.50
2022-10-20T07:33:03.977Z,15.50
2022-10-20T07:38:07.487Z,15.50
2022-10-20T07:43:11.036Z,15.60
2022-10-20T07:48:15.891Z,15.70
2022-10-20T07:53:19.520Z,15.80
2022-10-20T07:58:23.149Z,15.90
2022-10-20T08:03:28.144Z,15.90
2022-10-20T08:08:32.196Z,15.90
2022-10-20T08:13:35.873Z,16.00
2022-10-20T08:24:02.590Z,16.00
2022-10-20T08:29:06.585Z,16.10
2022-10-20T08:34:11.530Z,16.20
2022-10-20T08:39:15.076Z,16.30
2022-10-20T08:44:23.105Z,16.30
2022-10-20T08:49:30.840Z,16.50
2022-10-20T08:54:35.705Z,16.70
2022-10-20T08:59:40.000Z,17.00
2022-10-20T09:04:50.511Z,17.30
2022-10-20T09:09:59.016Z,17.70
2022-10-20T09:15:02.705Z,18.00
2022-10-20T09:20:17.121Z,18.40
2022-10-20T09:25:24.003Z,18.80
2022-10-20T09:30:35.442Z,19.30
2022-10-20T09:35:41.628Z,19.70
2022-10-20T09:40:46.698Z,20.10
2022-10-20T09:45:54.108Z,20.70
2022-10-20T09:51:00.434Z,21.00
2022-10-20T09:56:04.333Z,21.50
2022-10-20T10:01:14.248Z,22.00
2022-10-20T10:06:28.572Z,22.50
2022-10-20T10:11:35.389Z,23.20
2022-10-20T10:16:43.714Z,23.90
2022-10-20T10:21:53.499Z,24.20
2022-10-20T10:26:57.966Z,24.60
2022-10-20T10:32:03.350Z,24.80
2022-10-20T10:37:14.002Z,25.20
2022-10-20T10:42:35.281Z,25.40
2022-10-20T10:48:16.390Z,25.50
2022-10-20T10:53:38.174Z,25.50
2022-10-20T10:58:47.560Z,25.20
2022-10-20T11:04:09.154Z,25.00
2022-10-20T11:09:31.694Z,25.00
2022-10-20T11:14:44.822Z,25.10
2022-10-20T11:20:04.608Z,25.30
2022-10-20T11:25:21.949Z,25.80
2022-10-20T11:30:27.527Z,26.40
2022-10-20T11:35:39.674Z,26.50
2022-10-20T11:40:49.732Z,26.50
2022-10-20T11:45:56.779Z,26.50
2022-10-20T11:51:16.784Z,26.70
2022-10-20T11:56:53.620Z,26.20
2022-10-20T12:02:44.078Z,25.50
2022-10-20T12:08:28.903Z,24.80
2022-10-20T12:13:41.993Z,24.40
2022-10-20T12:19:08.242Z,24.40
2022-10-20T12:24:33.863Z,24.20
2022-10-20T12:30:07.211Z,24.10
2022-10-20T12:35:53.916Z,24.20
2022-10-20T12:41:02.141Z,24.30
2022-10-20T12:46:12.818Z,24.70
2022-10-20T12:51:25.889Z,24.80
2022-10-20T12:56:36.298Z,24.80
2022-10-20T13:02:14.648Z,24.70
2022-10-20T13:08:18.148Z,24.70
2022-10-20T13:13:58.827Z,24.60
2022-10-20T13:19:08.863Z,24.50
2022-10-20T13:24:17.430Z,24.40
2022-10-20T13:29:26.511Z,24.20
2022-10-20T13:34:36.401Z,24.60
2022-10-20T13:39:50.018Z,25.40
2022-10-20T13:45:03.926Z,26.20
2022-10-20T13:50:12.047Z,26.90
2022-10-20T13:55:22.134Z,27.20
2022-10-20T14:00:28.694Z,27.40
2022-10-20T14:05:38.568Z,27.20
2022-10-20T14:10:50.065Z,27.30
2022-10-20T14:15:56.322Z,27.30
2022-10-20T14:21:02.974Z,27.00
2022-10-20T14:26:12.824Z,26.40
2022-10-20T14:31:17.095Z,25.80
2022-10-20T14:36:22.003Z,25.30
2022-10-20T14:41:27.454Z,24.90
2022-10-20T14:46:34.285Z,24.40
2022-10-20T14:51:40.837Z,24.10
2022-10-20T14:56:47.725Z,23.80
2022-10-20T15:02:08.253Z,23.60
2022-10-20T15:07:15.992Z,23.50
2022-10-20T15:12:27.972Z,23.40
2022-10-20T15:17:33.397Z,23.20
2022-10-20T15:22:37.269Z,23.10
2022-10-20T15:27:42.646Z,23.00
2022-10-20T15:32:46.211Z,23.00
2022-10-20T15:37:51.542Z,23.00
2022-10-20T15:42:56.466Z,23.00
2022-10-20T15:48:00.041Z,22.90
2022-10-20T15:53:03.672Z,22.80
2022-10-20T15:58:08.578Z,22.80
2022-10-20T16:03:16.582Z,22.70
2022-10-20T16:08:20.337Z,22.70
2022-10-20T16:13:25.365Z,22.70
2022-10-20T16:18:29.125Z,22.70
2022-10-20T16:23:33.094Z,22.60
2022-10-20T16:28:38.384Z,22.60
2022-10-20T16:33:42.660Z,22.50
2022-10-20T16:38:46.223Z,22.50
2022-10-20T16:43:51.147Z,22.50
2022-10-20T16:48:57.180Z,22.40
2022-10-20T16:54:03.266Z,22.40
2022-10-20T16:59:08.779Z,22.30
2022-10-20T17:04:13.439Z,22.30
2022-10-20T17:09:16.991Z,22.20
2022-10-20T17:14:22.114Z,22.10
2022-10-20T17:19:25.719Z,22.00
2022-10-20T17:24:29.338Z,21.90
2022-10-20T17:29:34.359Z,21.80
2022-10-20T17:34:37.952Z,21.60
2022-10-20T17:39:41.535Z,21.50
2022-10-20T17:44:46.718Z,21.30
2022-10-20T17:49:50.309Z,21.20
2022-10-20T17:54:53.904Z,21.10
2022-10-20T18:00:00.443Z,20.90
2022-10-20T18:05:09.160Z,20.80
2022-10-20T18:10:13.185Z,20.80
2022-10-20T18:15:18.348Z,20.70
2022-10-20T18:20:22.186Z,20.60
2022-10-20T18:25:25.818Z,20.50
2022-10-20T18:30:30.816Z,20.40
2022-10-20T18:35:37.670Z,20.30
2022-10-20T18:40:41.251Z,20.30
2022-10-20T18:45:53.667Z,20.20
2022-10-20T18:50:58.549Z,20.10
2022-10-20T18:56:03.516Z,19.90
2022-10-20T19:01:11.088Z,19.90
2022-10-20T19:06:17.525Z,19.70
2022-10-20T19:11:22.951Z,19.70
2022-10-20T19:16:29.795Z,19.60
2022-10-20T19:21:34.136Z,19.60
2022-10-20T19:26:40.674Z,19.60
2022-10-20T19:31:47.882Z,19.60
2022-10-20T19:36:51.542Z,19.50
2022-10-20T19:41:55.889Z,19.40
2022-10-20T19:47:01.159Z,19.40
2022-10-20T19:52:05.322Z,19.40
2022-10-20T19:57:08.917Z,19.40
2022-10-20T20:02:15.347Z,19.30
2022-10-20T20:07:19.032Z,19.30
2022-10-20T20:12:22.634Z,19.30
2022-10-20T20:17:27.596Z,19.30
2022-10-20T20:22:31.154Z,19.40
2022-10-20T20:27:34.984Z,19.40
2022-10-20T20:32:42.828Z,19.40
2022-10-20T20:37:50.398Z,19.40
2022-10-20T20:42:54.239Z,19.40
2022-10-20T20:47:59.167Z,19.40
2022-10-20T20:53:02.733Z,19.40
2022-10-20T20:58:06.302Z,19.40
2022-10-20T21:03:11.210Z,19.30
2022-10-20T21:08:15.296Z,19.30
2022-10-20T21:13:19.037Z,19.30
2022-10-20T21:18:24.196Z,19.30
2022-10-20T21:23:27.763Z,19.20
2022-10-20T21:28:31.565Z,19.30
2022-10-20T21:33:37.156Z,19.30
2022-10-20T21:38:42.535Z,19.40
2022-10-20T21:43:48.254Z,19.30
2022-10-20T21:48:55.443Z,19.30
2022-10-20T21:54:00.516Z,19.30
2022-10-20T21:59:04.733Z,19.30
2022-10-20T22:04:09.709Z,19.30
2022-10-20T22:09:14.919Z,19.30
2022-10-20T22:14:18.665Z,19.30
2022-10-20T22:19:25.274Z,19.40
2022-10-20T22:24:30.587Z,19.40
2022-10-20T22:29:34.200Z,19.40
